Time;durP1;ratioP1;P1;durP2;ratioP2;P2;SDS_P1;SDS_P2;PMS_P1;PMS_P2;Temp;Humidity;BMP_temperature;BMP_pressure;BME280_temperature;BME280_humidity;BME280_pressure;Samples;Min_cycle;Max_cycle;Signal;HPM_P1;HPM_P2
2023/06/25 00:01:50;;;;;;;7.43;3.90;;;;;;;;;;5086946;28;20023;-67
2023/06/25 00:04:17;;;;;;;8.13;3.80;;;;;;;;;;5089702;28;20027;-67
2023/06/25 00:06:43;;;;;;;7.13;4.05;;;;;;;;;;5068132;28;20800;-67
2023/06/25 00:09:10;;;;;;;8.30;4.00;;;;;;;;;;5075806;28;20034;-67
2023/06/25 00:11:38;;;;;;;8.93;3.65;;;;;;;;;;5066244;27;20020;-67
2023/06/25 00:14:06;;;;;;;8.18;4.22;;;;;;;;;;5069762;28;20142;-67
2023/06/25 00:16:34;;;;;;;8.48;4.05;;;;;;;;;;5079263;28;20530;-67
2023/06/25 00:19:00;;;;;;;6.50;3.63;;;;;;;;;;5075016;28;20128;-68
2023/06/25 00:21:28;;;;;;;10.35;4.20;;;;;;;;;;5078073;28;20130;-67
2023/06/25 00:23:53;;;;;;;9.45;3.97;;;;;;;;;;5089128;28;20072;-67
2023/06/25 00:26:21;;;;;;;7.20;3.80;;;;;;;;;;5073290;28;20035;-67
2023/06/25 00:28:46;;;;;;;7.05;3.95;;;;;;;;;;5075707;28;20059;-67
2023/06/25 00:31:15;;;;;;;6.67;3.93;;;;;;;;;;5074697;28;20130;-67
2023/06/25 00:33:43;;;;;;;6.00;3.83;;;;;;;;;;5074306;28;20305;-67
2023/06/25 00:36:09;;;;;;;7.43;4.05;;;;;;;;;;5092638;28;20016;-67
2023/06/25 00:38:38;;;;;;;7.07;3.88;;;;;;;;;;5085969;28;20030;-67
2023/06/25 00:41:03;;;;;;;;;;;;;;;;;;5077002;28;20020;-67
2023/06/25 00:43:29;;;;;;;7.60;4.00;;;;;;;;;;5088843;28;19931;-67
2023/06/25 00:45:54;;;;;;;8.13;4.10;;;;;;;;;;5077112;28;20032;-68
2023/06/25 00:48:22;;;;;;;7.30;4.10;;;;;;;;;;5095914;27;20028;-67
2023/06/25 00:50:50;;;;;;;7.15;3.90;;;;;;;;;;5090965;27;20073;-67
2023/06/25 00:53:16;;;;;;;8.48;4.30;;;;;;;;;;5087316;28;20099;-67
2023/06/25 00:55:41;;;;;;;7.90;4.32;;;;;;;;;;5069602;28;20024;-66
2023/06/25 00:58:07;;;;;;;13.60;4.32;;;;;;;;;;5087661;28;20023;-67
2023/06/25 01:00:35;;;;;;;6.40;3.75;;;;;;;;;;5094485;27;20042;-67
2023/06/25 01:03:03;;;;;;;7.13;4.20;;;;;;;;;;5091142;27;20059;-68
2023/06/25 01:05:39;;;;;;;6.10;3.70;;;;;;;;;;5074613;28;20035;-68
2023/06/25 01:08:08;;;;;;;7.15;3.97;;;;;;;;;;5070613;28;20419;-67
2023/06/25 01:10:36;;;;;;;6.07;3.45;;;;;;;;;;5093002;27;20012;-66
2023/06/25 01:13:02;;;;;;;6.80;3.85;;;;;;;;;;5087949;28;21283;-67
2023/06/25 01:15:29;;;;;;;8.18;4.40;;;;;;;;;;5070903;28;20040;-67
2023/06/25 01:17:57;;;;;;;7.10;3.67;;;;;;;;;;5087817;27;20478;-68
2023/06/25 01:20:22;;;;;;;5.95;3.58;;;;;;;;;;5072953;28;20146;-67
2023/06/25 01:22:48;;;;;;;7.22;3.83;;;;;;;;;;5079558;28;20092;-68
2023/06/25 01:25:14;;;;;;;7.20;3.50;;;;;;;;;;5073873;28;20039;-68
2023/06/25 01:27:39;;;;;;;9.38;4.15;;;;;;;;;;5084725;27;20016;-68
2023/06/25 01:30:07;;;;;;;7.97;3.50;;;;;;;;;;5088565;27;20023;-68
2023/06/25 01:32:35;;;;;;;6.78;3.20;;;;;;;;;;5091557;28;20019;-68
2023/06/25 01:35:01;;;;;;;6.43;3.38;;;;;;;;;;5078027;28;20051;-68
2023/06/25 01:37:30;;;;;;;7.23;3.30;;;;;;;;;;5070902;27;20111;-68
2023/06/25 01:39:56;;;;;;;6.97;3.55;;;;;;;;;;5070137;28;20505;-68
2023/06/25 01:42:21;;;;;;;7.78;3.55;;;;;;;;;;5091155;27;20028;-68
2023/06/25 01:44:46;;;;;;;6.72;3.58;;;;;;;;;;5068736;28;20063;-68
2023/06/25 01:47:12;;;;;;;6.40;3.47;;;;;;;;;;5083393;28;20055;-68
2023/06/25 01:49:37;;;;;;;7.60;3.50;;;;;;;;;;5079035;27;20351;-68
2023/06/25 01:52:02;;;;;;;6.17;3.20;;;;;;;;;;5071707;28;20045;-67
2023/06/25 01:54:28;;;;;;;6.43;3.00;;;;;;;;;;5092598;28;20261;-67
2023/06/25 01:56:54;;;;;;;6.68;3.10;;;;;;;;;;5072737;28;20610;-67
2023/06/25 01:59:19;;;;;;;5.53;2.90;;;;;;;;;;5070179;28;20026;-68
2023/06/25 02:01:44;;;;;;;5.23;2.80;;;;;;;;;;5082706;27;20031;-68
2023/06/25 02:04:09;;;;;;;6.30;3.30;;;;;;;;;;5096715;27;20039;-67
2023/06/25 02:06:37;;;;;;;6.13;3.00;;;;;;;;;;5075264;27;20178;-68
2023/06/25 02:09:02;;;;;;;6.55;3.00;;;;;;;;;;5089916;28;20810;-68
2023/06/25 02:11:28;;;;;;;5.53;2.95;;;;;;;;;;5070582;28;20027;-68
2023/06/25 02:13:53;;;;;;;5.50;2.78;;;;;;;;;;5090870;28;20119;-68
2023/06/25 02:16:18;;;;;;;5.70;3.00;;;;;;;;;;5090006;27;20044;-68
2023/06/25 02:18:44;;;;;;;5.20;2.83;;;;;;;;;;5073027;28;20273;-68
2023/06/25 02:21:11;;;;;;;6.50;3.10;;;;;;;;;;5074704;28;20094;-69
2023/06/25 02:23:39;;;;;;;6.05;3.20;;;;;;;;;;5092487;27;20313;-69
2023/06/25 02:26:04;;;;;;;6.43;2.45;;;;;;;;;;5072973;28;20027;-68
2023/06/25 02:28:29;;;;;;;6.43;3.00;;;;;;;;;;5072728;28;20494;-67
2023/06/25 02:30:54;;;;;;;6.27;2.93;;;;;;;;;;5086365;28;20285;-68
2023/06/25 02:33:22;;;;;;;5.33;2.90;;;;;;;;;;5073785;28;20066;-68
2023/06/25 02:35:50;;;;;;;5.95;3.08;;;;;;;;;;5068391;28;20055;-68
2023/06/25 02:38:15;;;;;;;6.43;3.10;;;;;;;;;;5085335;28;20061;-68
2023/06/25 02:40:40;;;;;;;6.03;3.03;;;;;;;;;;5076957;28;20032;-66
2023/06/25 02:43:08;;;;;;;7.13;3.13;;;;;;;;;;5086521;28;20103;-68
2023/06/25 02:45:35;;;;;;;5.05;2.60;;;;;;;;;;5089511;27;20039;-68
2023/06/25 02:48:01;;;;;;;5.97;2.90;;;;;;;;;;5084896;27;20047;-68
2023/06/25 02:50:26;;;;;;;5.00;2.40;;;;;;;;;;5090410;28;20026;-68
2023/06/25 02:52:51;;;;;;;4.67;2.40;;;;;;;;;;5073220;27;20055;-68
2023/06/25 02:55:16;;;;;;;4.73;2.27;;;;;;;;;;5089508;28;20104;-68
2023/06/25 02:57:42;;;;;;;5.15;2.50;;;;;;;;;;5092108;28;20881;-66
2023/06/25 03:00:07;;;;;;;4.77;2.30;;;;;;;;;;5087984;28;20074;-69
2023/06/25 03:02:32;;;;;;;5.05;2.45;;;;;;;;;;5091493;27;20342;-67
2023/06/25 03:04:58;;;;;;;6.25;2.80;;;;;;;;;;5071607;28;20381;-68
2023/06/25 03:07:23;;;;;;;5.53;2.43;;;;;;;;;;5087513;28;20505;-69
2023/06/25 03:09:48;;;;;;;6.27;2.70;;;;;;;;;;5069527;28;20054;-67
2023/06/25 03:12:16;;;;;;;6.07;2.70;;;;;;;;;;5086863;28;20034;-66
2023/06/25 03:14:43;;;;;;;5.50;2.85;;;;;;;;;;5092066;28;20033;-68
2023/06/25 03:17:09;;;;;;;5.05;2.72;;;;;;;;;;5085477;28;20123;-69
2023/06/25 03:19:34;;;;;;;6.20;2.73;;;;;;;;;;5069583;28;20493;-69
2023/06/25 03:22:00;;;;;;;6.30;2.63;;;;;;;;;;5086984;27;20253;-68
2023/06/25 03:24:25;;;;;;;5.40;2.83;;;;;;;;;;5087491;27;20797;-68
2023/06/25 03:26:53;;;;;;;5.97;2.50;;;;;;;;;;5083818;27;20027;-67
2023/06/25 03:29:18;;;;;;;5.85;2.67;;;;;;;;;;5088209;28;20261;-68
2023/06/25 03:31:46;;;;;;;5.73;2.80;;;;;;;;;;5085082;28;20024;-68
2023/06/25 03:34:11;;;;;;;5.72;2.55;;;;;;;;;;5088159;28;20364;-68
2023/06/25 03:36:37;;;;;;;5.17;2.80;;;;;;;;;;5092434;28;20552;-69
2023/06/25 03:39:02;;;;;;;5.95;2.80;;;;;;;;;;5067564;28;20307;-69
2023/06/25 03:41:28;;;;;;;6.07;2.85;;;;;;;;;;5089034;28;20027;-67
2023/06/25 03:43:53;;;;;;;5.80;2.83;;;;;;;;;;5084438;28;20036;-67
2023/06/25 03:46:19;;;;;;;6.37;2.93;;;;;;;;;;5071649;28;21340;-68
2023/06/25 03:48:44;;;;;;;5.73;2.97;;;;;;;;;;5091334;28;20027;-68
2023/06/25 03:51:09;;;;;;;6.60;3.07;;;;;;;;;;5085726;28;20035;-66
2023/06/25 03:53:35;;;;;;;5.75;3.25;;;;;;;;;;5070606;28;20888;-68
2023/06/25 03:56:00;;;;;;;6.22;2.83;;;;;;;;;;5087497;28;20485;-68
2023/06/25 03:58:25;;;;;;;5.73;2.77;;;;;;;;;;5072099;28;20028;-68
2023/06/25 04:00:51;;;;;;;4.60;2.57;;;;;;;;;;5091351;28;20755;-68
2023/06/25 04:03:16;;;;;;;6.00;2.83;;;;;;;;;;5089365;28;20599;-67
2023/06/25 04:05:41;;;;;;;6.43;2.63;;;;;;;;;;5075975;28;20346;-69
2023/06/25 04:08:06;;;;;;;5.30;2.90;;;;;;;;;;5089338;28;20258;-68
2023/06/25 04:10:32;;;;;;;5.47;2.70;;;;;;;;;;5073558;28;20127;-68
2023/06/25 04:12:59;;;;;;;6.27;2.90;;;;;;;;;;5072100;28;20024;-69
2023/06/25 04:15:25;;;;;;;6.25;2.67;;;;;;;;;;5087494;28;20679;-67
2023/06/25 04:17:50;;;;;;;6.40;2.93;;;;;;;;;;5086137;28;20069;-68
2023/06/25 04:20:15;;;;;;;5.23;2.60;;;;;;;;;;5071640;28;20534;-67
2023/06/25 04:22:43;;;;;;;5.50;2.57;;;;;;;;;;5085993;28;20293;-68
2023/06/25 04:25:08;;;;;;;5.30;2.83;;;;;;;;;;5091864;28;20284;-68
2023/06/25 04:27:33;;;;;;;5.45;2.55;;;;;;;;;;5071609;28;20028;-67
2023/06/25 04:30:00;;;;;;;5.90;2.80;;;;;;;;;;5089800;28;20020;-68
2023/06/25 04:32:26;;;;;;;6.55;3.03;;;;;;;;;;5089630;28;20019;-68
2023/06/25 04:34:51;;;;;;;6.20;3.20;;;;;;;;;;5083396;28;20076;-68
2023/06/25 04:37:16;;;;;;;6.50;3.03;;;;;;;;;;5088587;28;20364;-68
2023/06/25 04:39:46;;;;;;;6.27;2.93;;;;;;;;;;5081875;28;20066;-68
2023/06/25 04:42:11;;;;;;;6.00;2.95;;;;;;;;;;5072283;28;20023;-68
2023/06/25 04:44:37;;;;;;;6.63;2.97;;;;;;;;;;5073772;28;20489;-68
2023/06/25 04:47:02;;;;;;;5.40;2.70;;;;;;;;;;5071234;28;20035;-67
2023/06/25 04:49:27;;;;;;;5.30;2.72;;;;;;;;;;5089838;28;20027;-68
2023/06/25 04:51:52;;;;;;;6.67;2.90;;;;;;;;;;5071063;28;20024;-68
2023/06/25 04:54:20;;;;;;;6.07;2.93;;;;;;;;;;5093157;28;20053;-68
2023/06/25 04:56:45;;;;;;;5.25;2.80;;;;;;;;;;5072746;28;20024;-68
2023/06/25 04:59:10;;;;;;;6.45;3.08;;;;;;;;;;5072293;27;20080;-67
2023/06/25 05:01:38;;;;;;;5.47;2.92;;;;;;;;;;5075097;28;20023;-69
2023/06/25 05:04:03;;;;;;;7.47;3.38;;;;;;;;;;5075331;28;20045;-67
2023/06/25 05:06:29;;;;;;;8.63;3.22;;;;;;;;;;5071504;28;20032;-66
2023/06/25 05:08:56;;;;;;;5.80;3.10;;;;;;;;;;5085637;28;20027;-67
2023/06/25 05:11:21;;;;;;;5.80;3.13;;;;;;;;;;5075972;28;20343;-67
2023/06/25 05:13:47;;;;;;;5.00;2.75;;;;;;;;;;5085979;28;20043;-67
2023/06/25 05:16:15;;;;;;;7.97;2.97;;;;;;;;;;5089075;28;20055;-69
2023/06/25 05:18:41;;;;;;;7.13;3.42;;;;;;;;;;5082140;28;20034;-67
2023/06/25 05:21:06;;;;;;;6.65;3.28;;;;;;;;;;5093987;28;20028;-68
2023/06/25 05:23:42;;;;;;;6.67;3.20;;;;;;;;;;5075923;28;20062;-68
2023/06/25 05:26:07;;;;;;;6.43;3.20;;;;;;;;;;5090621;27;20264;-69
2023/06/25 05:28:35;;;;;;;6.10;3.20;;;;;;;;;;5089433;28;20023;-67
2023/06/25 05:31:02;;;;;;;5.97;3.10;;;;;;;;;;5091379;28;20024;-68
2023/06/25 05:33:30;;;;;;;5.93;3.00;;;;;;;;;;5090765;28;20112;-68
2023/06/25 05:35:55;;;;;;;7.40;3.30;;;;;;;;;;5073699;28;20020;-68
2023/06/25 05:38:21;;;;;;;6.60;3.17;;;;;;;;;;5079041;28;20035;-68
2023/06/25 05:40:48;;;;;;;6.80;3.22;;;;;;;;;;5072604;28;20077;-68
2023/06/25 05:43:13;;;;;;;6.35;3.05;;;;;;;;;;5089183;27;20023;-67
2023/06/25 05:45:39;;;;;;;5.53;2.90;;;;;;;;;;5087982;28;20559;-69
2023/06/25 05:48:04;;;;;;;5.43;3.07;;;;;;;;;;5090782;28;20024;-67
2023/06/25 05:50:32;;;;;;;6.57;3.20;;;;;;;;;;5072983;28;20351;-66
2023/06/25 05:52:57;;;;;;;5.90;2.95;;;;;;;;;;5071802;28;20377;-68
2023/06/25 05:55:22;;;;;;;5.50;3.00;;;;;;;;;;5073753;28;20020;-69
2023/06/25 05:57:47;;;;;;;6.37;3.10;;;;;;;;;;5075035;28;20488;-68
2023/06/25 06:00:13;;;;;;;7.50;3.23;;;;;;;;;;5088040;28;20150;-68
2023/06/25 06:02:38;;;;;;;5.70;2.70;;;;;;;;;;5071009;28;20020;-67
2023/06/25 06:05:04;;;;;;;6.93;3.15;;;;;;;;;;5074255;28;20036;-67
2023/06/25 06:07:29;;;;;;;5.28;2.72;;;;;;;;;;5070137;28;20034;-68
2023/06/25 06:09:54;;;;;;;5.37;2.90;;;;;;;;;;5069270;28;20103;-68
2023/06/25 06:12:22;;;;;;;6.17;3.10;;;;;;;;;;5072213;28;20428;-68
2023/06/25 06:14:47;;;;;;;5.43;2.80;;;;;;;;;;5087400;28;20423;-68
2023/06/25 06:17:12;;;;;;;7.80;2.80;;;;;;;;;;5070790;28;20048;-68
2023/06/25 06:19:38;;;;;;;5.80;3.20;;;;;;;;;;5091844;28;20262;-68
2023/06/25 06:22:03;;;;;;;5.50;2.70;;;;;;;;;;5085504;28;20110;-66
2023/06/25 06:24:28;;;;;;;5.88;3.10;;;;;;;;;;5072943;28;20446;-68
2023/06/25 06:26:55;;;;;;;6.03;3.07;;;;;;;;;;5091110;28;20023;-67
2023/06/25 06:29:21;;;;;;;7.32;3.63;;;;;;;;;;5084290;28;20090;-67
2023/06/25 06:31:48;;;;;;;7.32;3.58;;;;;;;;;;5073761;28;20055;-69
2023/06/25 06:34:16;;;;;;;7.97;3.17;;;;;;;;;;5085351;28;20543;-69
2023/06/25 06:36:41;;;;;;;5.43;3.10;;;;;;;;;;5072155;28;20031;-68
2023/06/25 06:39:06;;;;;;;6.32;3.00;;;;;;;;;;5081440;28;20015;-68
2023/06/25 06:41:31;;;;;;;6.70;3.28;;;;;;;;;;5091865;27;20027;-68
2023/06/25 06:44:30;;;;;;;7.70;3.53;;;;;;;;;;5083978;28;20281;-69
2023/06/25 06:46:56;;;;;;;7.10;3.15;;;;;;;;;;5017140;28;20035;-67
2023/06/25 06:49:21;;;;;;;6.10;2.63;;;;;;;;;;5091211;27;20731;-68
2023/06/25 06:51:46;;;;;;;5.85;3.00;;;;;;;;;;5073781;28;20258;-68
2023/06/25 06:54:11;;;;;;;5.73;2.97;;;;;;;;;;5092007;28;20130;-67
2023/06/25 06:56:38;;;;;;;6.03;2.90;;;;;;;;;;5074047;28;20810;-67
2023/06/25 06:59:03;;;;;;;6.07;2.80;;;;;;;;;;5092805;27;20056;-66
2023/06/25 07:01:29;;;;;;;6.30;2.80;;;;;;;;;;5086484;28;20111;-68
2023/06/25 07:03:54;;;;;;;7.25;2.85;;;;;;;;;;5080638;28;20426;-68
2023/06/25 07:06:22;;;;;;;6.05;2.92;;;;;;;;;;5072751;28;20783;-68
2023/06/25 07:08:47;;;;;;;6.93;2.90;;;;;;;;;;5083712;27;20028;-68
2023/06/25 07:11:16;;;;;;;5.07;2.60;;;;;;;;;;5086588;27;20057;-68
2023/06/25 07:13:42;;;;;;;5.15;2.30;;;;;;;;;;5082081;28;20054;-68
2023/06/25 07:16:07;;;;;;;4.63;2.28;;;;;;;;;;5087434;27;20138;-67
2023/06/25 07:18:34;;;;;;;5.43;2.40;;;;;;;;;;5084657;28;20027;-68
2023/06/25 07:21:00;;;;;;;5.72;2.70;;;;;;;;;;5072080;28;20019;-69
2023/06/25 07:23:25;;;;;;;4.88;2.38;;;;;;;;;;5072464;28;20715;-69
2023/06/25 07:25:50;;;;;;;4.85;2.10;;;;;;;;;;5066264;28;21028;-68
2023/06/25 07:28:16;;;;;;;6.15;2.20;;;;;;;;;;5078089;28;20027;-68
2023/06/25 07:30:41;;;;;;;4.53;2.20;;;;;;;;;;5082958;28;20809;-67
2023/06/25 07:33:08;;;;;;;5.27;2.10;;;;;;;;;;5088567;28;20027;-67
2023/06/25 07:35:34;;;;;;;5.32;1.88;;;;;;;;;;5064892;28;20300;-68
2023/06/25 07:37:59;;;;;;;4.47;1.60;;;;;;;;;;5089097;28;20435;-68
2023/06/25 07:40:26;;;;;;;4.00;1.50;;;;;;;;;;5069081;28;20034;-68
2023/06/25 07:42:54;;;;;;;4.63;1.58;;;;;;;;;;5071090;28;20356;-68
2023/06/25 07:45:19;;;;;;;5.30;1.70;;;;;;;;;;5071036;28;20029;-67
2023/06/25 07:47:45;;;;;;;4.33;1.60;;;;;;;;;;5085923;28;20027;-68
2023/06/25 07:50:10;;;;;;;4.43;1.58;;;;;;;;;;5090825;28;20106;-69
2023/06/25 07:52:35;;;;;;;4.22;1.40;;;;;;;;;;5087138;28;20030;-68
2023/06/25 07:55:03;;;;;;;4.63;1.55;;;;;;;;;;5069742;28;20036;-68
2023/06/25 07:57:28;;;;;;;4.22;1.60;;;;;;;;;;5089809;28;20060;-68
2023/06/25 07:59:56;;;;;;;4.00;1.50;;;;;;;;;;5090194;28;20023;-68
2023/06/25 08:02:24;;;;;;;4.00;1.40;;;;;;;;;;5071947;28;20274;-70
2023/06/25 08:04:49;;;;;;;3.53;1.25;;;;;;;;;;5083921;28;20032;-68
2023/06/25 08:07:14;;;;;;;4.07;1.30;;;;;;;;;;5084598;28;20156;-68
2023/06/25 08:09:43;;;;;;;3.67;1.40;;;;;;;;;;5080644;28;20032;-69
2023/06/25 08:12:09;;;;;;;3.78;1.10;;;;;;;;;;5083313;28;20258;-69
2023/06/25 08:14:34;;;;;;;3.90;1.33;;;;;;;;;;5086547;28;20023;-69
2023/06/25 08:16:59;;;;;;;4.50;1.17;;;;;;;;;;5082766;28;20044;-69
2023/06/25 08:19:25;;;;;;;3.50;1.25;;;;;;;;;;5090227;28;20024;-69
2023/06/25 08:21:52;;;;;;;4.03;1.10;;;;;;;;;;5089349;28;20023;-69
2023/06/25 08:24:17;;;;;;;7.70;1.40;;;;;;;;;;5071174;28;20047;-68
2023/06/25 08:26:43;;;;;;;3.30;1.37;;;;;;;;;;5086818;28;20107;-69
2023/06/25 08:29:08;;;;;;;3.43;1.10;;;;;;;;;;5086523;28;20065;-68
2023/06/25 08:31:33;;;;;;;2.60;1.00;;;;;;;;;;5092308;28;20412;-69
2023/06/25 08:33:58;;;;;;;3.10;0.97;;;;;;;;;;5087572;27;20023;-69
2023/06/25 08:36:24;;;;;;;3.20;1.00;;;;;;;;;;5092703;28;20091;-70
2023/06/25 08:38:51;;;;;;;4.10;1.20;;;;;;;;;;5081654;28;20262;-69
2023/06/25 08:41:19;;;;;;;3.65;1.27;;;;;;;;;;5071201;28;20866;-70
2023/06/25 08:43:45;;;;;;;3.00;1.05;;;;;;;;;;5085731;28;20042;-69
2023/06/25 08:46:10;;;;;;;6.20;1.20;;;;;;;;;;5091590;28;20595;-69
2023/06/25 08:48:38;;;;;;;2.88;1.00;;;;;;;;;;5086764;28;20020;-68
2023/06/25 08:51:08;;;;;;;3.00;1.05;;;;;;;;;;5085444;27;20592;-68
2023/06/25 08:53:34;;;;;;;3.08;0.98;;;;;;;;;;5069424;28;20126;-68
2023/06/25 08:56:07;;;;;;;2.83;0.95;;;;;;;;;;5070166;28;20055;-68
2023/06/25 08:58:32;;;;;;;2.83;0.90;;;;;;;;;;5086823;27;20043;-68
2023/06/25 09:00:57;;;;;;;5.57;1.00;;;;;;;;;;5081998;28;20246;-68
2023/06/25 09:03:23;;;;;;;3.27;1.07;;;;;;;;;;5074201;28;20027;-69
2023/06/25 09:05:52;;;;;;;3.10;1.00;;;;;;;;;;5083330;27;20513;-69
2023/06/25 09:08:17;;;;;;;;;;;;;;;;;;5093369;27;20031;-69
2023/06/25 09:10:42;;;;;;;3.65;0.90;;;;;;;;;;5083295;28;19919;-69
2023/06/25 09:13:07;;;;;;;2.73;1.00;;;;;;;;;;5091133;28;20446;-69
2023/06/25 09:15:41;;;;;;;4.13;1.00;;;;;;;;;;5084674;27;20311;-69
2023/06/25 09:18:06;;;;;;;3.42;1.20;;;;;;;;;;5087617;28;20027;-69
2023/06/25 09:20:34;;;;;;;3.50;1.03;;;;;;;;;;5074964;28;20020;-69
2023/06/25 09:23:04;;;;;;;2.50;0.88;;;;;;;;;;5091643;28;20535;-68
2023/06/25 09:25:31;;;;;;;4.05;1.35;;;;;;;;;;5092249;27;20059;-70
2023/06/25 09:27:58;;;;;;;3.58;1.30;;;;;;;;;;5088479;27;20425;-68
2023/06/25 09:30:23;;;;;;;4.00;1.10;;;;;;;;;;5075141;28;20020;-68
2023/06/25 09:32:50;;;;;;;3.15;1.00;;;;;;;;;;5072222;28;20027;-68
2023/06/25 09:35:19;;;;;;;3.50;1.00;;;;;;;;;;5088060;28;20568;-67
2023/06/25 09:37:44;;;;;;;4.70;1.20;;;;;;;;;;5070423;28;20027;-67
2023/06/25 09:40:12;;;;;;;3.53;1.10;;;;;;;;;;5084145;28;20016;-68
2023/06/25 09:42:41;;;;;;;4.32;1.10;;;;;;;;;;5071640;28;20041;-68
2023/06/25 09:45:08;;;;;;;4.22;1.10;;;;;;;;;;5085148;28;20054;-67
2023/06/25 09:47:37;;;;;;;3.83;1.20;;;;;;;;;;5092213;28;20094;-68
2023/06/25 09:50:07;;;;;;;3.05;1.08;;;;;;;;;;5065943;28;20023;-68
2023/06/25 09:52:33;;;;;;;3.05;1.10;;;;;;;;;;5088186;28;20022;-69
2023/06/25 09:54:59;;;;;;;3.47;1.20;;;;;;;;;;5088299;27;20070;-69
2023/06/25 09:57:25;;;;;;;3.75;1.40;;;;;;;;;;5073307;28;20020;-66
2023/06/25 09:59:51;;;;;;;5.03;1.40;;;;;;;;;;5088191;28;20131;-68
2023/06/25 10:02:16;;;;;;;3.57;1.30;;;;;;;;;;5091183;27;20048;-68
2023/06/25 10:04:42;;;;;;;4.32;1.30;;;;;;;;;;5072119;28;21002;-68
2023/06/25 10:07:08;;;;;;;3.30;1.08;;;;;;;;;;5092676;28;20054;-68
2023/06/25 10:09:33;;;;;;;3.10;1.30;;;;;;;;;;5067299;28;20118;-67
2023/06/25 10:11:58;;;;;;;3.87;1.37;;;;;;;;;;5089193;28;20102;-66
2023/06/25 10:14:24;;;;;;;3.73;1.40;;;;;;;;;;5087747;27;20481;-66
2023/06/25 10:16:55;;;;;;;4.65;1.40;;;;;;;;;;5060810;28;20890;-69
2023/06/25 10:19:28;;;;;;;4.20;1.45;;;;;;;;;;5051985;28;20027;-66
2023/06/25 10:21:57;;;;;;;3.90;1.40;;;;;;;;;;5051380;28;20147;-67
2023/06/25 10:24:22;;;;;;;4.30;1.38;;;;;;;;;;5068657;28;21023;-68
2023/06/25 10:26:52;;;;;;;4.50;1.40;;;;;;;;;;5051803;28;20028;-68
2023/06/25 10:29:19;;;;;;;4.10;1.40;;;;;;;;;;5067515;28;20770;-68
2023/06/25 10:31:45;;;;;;;4.72;1.60;;;;;;;;;;5063931;28;20024;-68
2023/06/25 10:34:12;;;;;;;4.63;1.60;;;;;;;;;;5064657;28;20387;-67
2023/06/25 10:36:47;;;;;;;5.00;1.95;;;;;;;;;;5070224;28;20028;-68
2023/06/25 10:39:12;;;;;;;3.35;1.35;;;;;;;;;;5062911;28;20034;-67
2023/06/25 10:41:48;;;;;;;3.60;1.42;;;;;;;;;;5067525;28;20016;-68
2023/06/25 10:44:14;;;;;;;4.05;1.50;;;;;;;;;;5066557;28;20479;-67
2023/06/25 10:46:39;;;;;;;3.30;1.15;;;;;;;;;;5057617;28;20019;-68
2023/06/25 10:49:05;;;;;;;4.20;1.67;;;;;;;;;;5048757;28;20035;-68
2023/06/25 10:51:32;;;;;;;4.15;1.20;;;;;;;;;;5063716;28;20038;-67
2023/06/25 10:53:58;;;;;;;6.40;1.70;;;;;;;;;;5063425;28;20518;-67
2023/06/25 10:56:23;;;;;;;4.50;1.37;;;;;;;;;;5051021;28;20028;-68
2023/06/25 10:58:57;;;;;;;3.95;1.65;;;;;;;;;;5065952;28;20353;-67
2023/06/25 11:01:23;;;;;;;4.00;1.70;;;;;;;;;;5063525;28;20176;-68
2023/06/25 11:03:48;;;;;;;3.70;1.40;;;;;;;;;;5046262;28;20463;-67
2023/06/25 11:06:14;;;;;;;3.90;1.70;;;;;;;;;;5050556;28;20374;-67
2023/06/25 11:08:42;;;;;;;4.97;1.70;;;;;;;;;;5051660;28;20051;-67
2023/06/25 11:11:08;;;;;;;4.00;1.60;;;;;;;;;;5071026;28;20028;-68
2023/06/25 11:13:33;;;;;;;4.00;1.90;;;;;;;;;;5065268;28;20028;-68
2023/06/25 11:15:58;;;;;;;4.32;1.70;;;;;;;;;;5066865;28;20043;-70
2023/06/25 11:18:24;;;;;;;3.97;1.73;;;;;;;;;;5078246;28;20045;-68
2023/06/25 11:20:53;;;;;;;5.03;1.77;;;;;;;;;;5086112;27;20272;-68
2023/06/25 11:23:18;;;;;;;4.70;1.60;;;;;;;;;;5082620;28;20269;-68
2023/06/25 11:25:44;;;;;;;3.90;1.70;;;;;;;;;;5085656;27;20091;-68
2023/06/25 11:28:13;;;;;;;4.80;1.83;;;;;;;;;;5069010;28;20848;-68
2023/06/25 11:30:39;;;;;;;4.72;1.70;;;;;;;;;;5079671;28;20262;-68
2023/06/25 11:33:14;;;;;;;5.35;1.80;;;;;;;;;;5092367;28;20081;-67
2023/06/25 11:35:40;;;;;;;5.82;1.60;;;;;;;;;;5063233;28;20039;-68
2023/06/25 11:38:05;;;;;;;4.85;1.70;;;;;;;;;;5075001;28;20016;-67
2023/06/25 11:40:32;;;;;;;3.80;1.60;;;;;;;;;;5064949;28;20813;-68
2023/06/25 11:42:57;;;;;;;5.65;1.70;;;;;;;;;;5087616;28;20031;-68
2023/06/25 11:45:22;;;;;;;4.23;1.67;;;;;;;;;;5068593;28;20084;-67
2023/06/25 11:47:50;;;;;;;4.22;1.92;;;;;;;;;;5085025;28;20887;-69
2023/06/25 11:50:16;;;;;;;5.60;2.08;;;;;;;;;;5081442;28;20027;-69
2023/06/25 11:52:41;;;;;;;4.28;1.80;;;;;;;;;;5080429;28;20030;-69
2023/06/25 11:55:07;;;;;;;4.10;1.73;;;;;;;;;;5068288;28;20553;-68
2023/06/25 11:57:32;;;;;;;4.25;1.88;;;;;;;;;;5075185;28;20257;-68
2023/06/25 12:00:00;;;;;;;5.07;1.87;;;;;;;;;;5070280;28;20028;-69
2023/06/25 12:02:25;;;;;;;5.07;1.65;;;;;;;;;;5079701;28;20024;-69
2023/06/25 12:04:54;;;;;;;4.30;1.73;;;;;;;;;;5087069;28;20059;-69
2023/06/25 12:07:19;;;;;;;3.80;1.75;;;;;;;;;;5071913;28;20482;-69
2023/06/25 12:09:47;;;;;;;4.17;1.90;;;;;;;;;;5075942;28;20134;-70
2023/06/25 12:12:14;;;;;;;4.25;1.90;;;;;;;;;;5071286;28;20047;-70
2023/06/25 12:14:42;;;;;;;4.47;1.70;;;;;;;;;;5078672;28;20101;-70
2023/06/25 12:17:07;;;;;;;4.85;1.83;;;;;;;;;;5084059;28;20459;-70
2023/06/25 12:19:33;;;;;;;4.50;1.90;;;;;;;;;;5091663;28;20024;-68
2023/06/25 12:21:59;;;;;;;4.30;1.90;;;;;;;;;;5081680;28;20296;-69
2023/06/25 12:24:24;;;;;;;4.23;1.80;;;;;;;;;;5071683;28;20039;-69
2023/06/25 12:26:49;;;;;;;4.07;1.90;;;;;;;;;;5076233;27;20302;-69
2023/06/25 12:29:15;;;;;;;4.55;2.00;;;;;;;;;;5092262;28;20497;-70
2023/06/25 12:31:40;;;;;;;6.17;1.93;;;;;;;;;;5069795;28;20996;-70
2023/06/25 12:34:08;;;;;;;4.53;1.90;;;;;;;;;;5074464;28;20135;-69
2023/06/25 12:36:33;;;;;;;6.20;2.00;;;;;;;;;;5088316;27;20474;-68
2023/06/25 12:39:01;;;;;;;4.10;2.10;;;;;;;;;;5088912;27;20024;-69
2023/06/25 12:41:27;;;;;;;4.03;1.92;;;;;;;;;;5089328;27;20102;-68
2023/06/25 12:43:54;;;;;;;4.57;2.20;;;;;;;;;;5085748;27;20024;-68
2023/06/25 12:46:20;;;;;;;4.55;2.25;;;;;;;;;;5092319;27;20024;-68
2023/06/25 12:48:45;;;;;;;4.53;1.90;;;;;;;;;;5088207;28;20030;-68
2023/06/25 12:51:10;;;;;;;4.35;2.20;;;;;;;;;;5071489;28;20483;-69
2023/06/25 12:53:36;;;;;;;4.38;1.90;;;;;;;;;;5083704;27;20054;-68
2023/06/25 12:56:01;;;;;;;4.40;2.08;;;;;;;;;;5088039;27;20094;-67
2023/06/25 12:58:26;;;;;;;4.43;2.07;;;;;;;;;;5068294;28;20104;-68
2023/06/25 13:00:54;;;;;;;4.50;1.90;;;;;;;;;;5091644;27;20241;-68
2023/06/25 13:03:20;;;;;;;4.40;2.17;;;;;;;;;;5066980;28;20024;-67
2023/06/25 13:05:45;;;;;;;5.63;2.00;;;;;;;;;;5072604;28;20038;-69
2023/06/25 13:08:11;;;;;;;7.07;1.80;;;;;;;;;;5066529;28;20027;-68
2023/06/25 13:10:38;;;;;;;6.32;2.13;;;;;;;;;;5087811;27;20095;-68
2023/06/25 13:13:07;;;;;;;4.70;1.80;;;;;;;;;;5079930;28;20050;-68
2023/06/25 13:15:32;;;;;;;5.20;2.20;;;;;;;;;;5083964;27;20973;-68
2023/06/25 13:18:00;;;;;;;4.05;1.75;;;;;;;;;;5065472;28;20020;-68
2023/06/25 13:20:25;;;;;;;5.18;1.98;;;;;;;;;;5046354;28;20025;-68
2023/06/25 13:22:50;;;;;;;6.17;2.00;;;;;;;;;;5069863;28;20750;-68
2023/06/25 13:25:16;;;;;;;4.43;2.13;;;;;;;;;;5067535;28;20331;-68
2023/06/25 13:27:41;;;;;;;4.38;2.00;;;;;;;;;;5068915;28;20039;-68
2023/06/25 13:30:09;;;;;;;4.40;1.90;;;;;;;;;;5049228;28;20773;-69
2023/06/25 13:32:35;;;;;;;4.00;1.85;;;;;;;;;;5065920;28;20261;-68
2023/06/25 13:35:00;;;;;;;4.35;1.92;;;;;;;;;;5065731;28;20556;-68
2023/06/25 13:37:29;;;;;;;4.10;1.67;;;;;;;;;;5051441;28;20427;-68
2023/06/25 13:39:56;;;;;;;5.13;2.15;;;;;;;;;;5060363;28;20471;-68
2023/06/25 13:42:22;;;;;;;4.18;1.88;;;;;;;;;;5067636;28;20021;-67
2023/06/25 13:44:47;;;;;;;4.20;1.90;;;;;;;;;;5061374;28;20028;-68
2023/06/25 13:47:13;;;;;;;4.30;2.00;;;;;;;;;;5050354;28;20443;-68
2023/06/25 13:49:39;;;;;;;5.25;2.08;;;;;;;;;;5053581;28;20798;-68
2023/06/25 13:52:04;;;;;;;4.63;2.00;;;;;;;;;;5065663;28;20062;-68
2023/06/25 13:54:30;;;;;;;6.35;1.90;;;;;;;;;;5069618;28;20250;-67
2023/06/25 13:56:55;;;;;;;4.83;2.10;;;;;;;;;;5070176;28;20033;-68
2023/06/25 13:59:20;;;;;;;4.60;2.17;;;;;;;;;;5050197;28;20289;-68
2023/06/25 14:01:47;;;;;;;6.67;2.47;;;;;;;;;;5070136;28;20063;-68
2023/06/25 14:04:13;;;;;;;4.20;1.80;;;;;;;;;;5072473;28;20293;-68
2023/06/25 14:06:38;;;;;;;4.60;2.15;;;;;;;;;;5067969;28;20024;-68
2023/06/25 14:09:06;;;;;;;5.60;2.00;;;;;;;;;;5066283;28;20025;-69
2023/06/25 14:11:31;;;;;;;4.20;1.75;;;;;;;;;;5044587;28;20883;-69
2023/06/25 14:13:56;;;;;;;4.95;1.80;;;;;;;;;;5067124;28;20020;-68
2023/06/25 14:16:31;;;;;;;4.77;2.10;;;;;;;;;;5077395;28;20529;-68
2023/06/25 14:18:59;;;;;;;4.45;2.00;;;;;;;;;;5083563;27;20451;-68
2023/06/25 14:21:25;;;;;;;4.53;2.00;;;;;;;;;;5086051;27;20623;-68
2023/06/25 14:23:51;;;;;;;4.80;2.20;;;;;;;;;;5072351;28;20023;-68
2023/06/25 14:26:16;;;;;;;4.67;2.20;;;;;;;;;;5070601;28;20066;-68
2023/06/25 14:28:41;;;;;;;4.67;1.90;;;;;;;;;;5088100;28;20023;-68
2023/06/25 14:31:09;;;;;;;4.57;2.20;;;;;;;;;;5089425;28;20022;-68
2023/06/25 14:33:34;;;;;;;4.35;1.95;;;;;;;;;;5085208;27;20503;-69
2023/06/25 14:36:00;;;;;;;4.82;2.20;;;;;;;;;;5090894;28;20119;-68
2023/06/25 14:38:28;;;;;;;5.28;2.28;;;;;;;;;;5085023;28;20019;-68